Time;durP1;ratioP1;P1;durP2;ratioP2;P2;SDS_P1;SDS_P2;PMS_P1;PMS_P2;Temp;Humidity;BMP_temperature;BMP_pressure;BME280_temperature;BME280_humidity;BME280_pressure;Samples;Min_cycle;Max_cycle;Signal;HPM_P1;HPM_P2
2021/03/29 00:00:15;;;;;;;2.55;1.02;;;;;;;23.82;40.15;100983.88;4993495;28;20149;-77
2021/03/29 00:02:41;;;;;;;4.07;1.30;;;;;;;23.87;40.05;101000.22;4993368;28;20026;-77
2021/03/29 00:05:07;;;;;;;3.00;1.20;;;;;;;23.58;40.78;100983.44;4993425;28;20569;-77
2021/03/29 00:07:34;;;;;;;4.97;1.63;;;;;;;23.77;40.25;101005.41;4993505;28;20108;-77
2021/03/29 00:10:04;;;;;;;4.22;1.38;;;;;;;23.83;40.60;100996.63;4993349;28;20429;-77
2021/03/29 00:12:30;;;;;;;6.82;1.52;;;;;;;23.66;41.02;101003.81;4993606;28;20026;-77
2021/03/29 00:14:57;;;;;;;4.22;2.08;;;;;;;23.90;40.31;101002.22;4993215;28;20121;-78
2021/03/29 00:17:23;;;;;;;2.15;1.45;;;;;;;23.92;40.14;101011.00;4992601;28;20033;-78
2021/03/29 00:19:50;;;;;;;3.00;1.50;;;;;;;23.81;40.64;100999.84;4992245;28;20030;-77
2021/03/29 00:22:16;;;;;;;5.47;1.60;;;;;;;23.88;40.23;100999.00;4993426;28;20061;-77
2021/03/29 00:24:42;;;;;;;3.22;1.27;;;;;;;23.66;40.96;101010.16;4991871;28;20038;-77
2021/03/29 00:27:08;;;;;;;6.40;1.45;;;;;;;23.85;40.52;101003.41;4993119;28;20023;-77
2021/03/29 00:29:34;;;;;;;2.75;1.20;;;;;;;23.76;40.47;100992.66;4992773;28;20113;-77
2021/03/29 00:32:01;;;;;;;4.07;1.48;;;;;;;23.67;40.87;101013.75;4993100;28;20034;-78
2021/03/29 00:34:26;;;;;;;4.45;1.58;;;;;;;23.77;40.77;101024.13;4993039;28;20079;-78
2021/03/29 00:36:54;;;;;;;6.07;1.85;;;;;;;23.60;41.00;101022.09;4993145;28;20038;-77
2021/03/29 00:39:21;;;;;;;3.78;1.30;;;;;;;23.77;40.50;101016.56;4992971;28;20030;-78
2021/03/29 00:41:48;;;;;;;6.63;2.13;;;;;;;23.90;40.34;101028.13;4992836;28;20050;-79
2021/03/29 00:44:15;;;;;;;6.82;1.85;;;;;;;23.89;40.07;101018.19;4992984;28;20031;-77
2021/03/29 00:46:41;;;;;;;4.40;1.30;;;;;;;23.72;40.53;101022.50;4992878;28;20073;-77
2021/03/29 00:49:08;;;;;;;4.43;1.88;;;;;;;23.59;40.58;101018.50;4992920;28;20038;-77
2021/03/29 00:51:36;;;;;;;4.00;1.58;;;;;;;23.34;41.36;101012.03;4992922;28;20022;-77
2021/03/29 00:54:03;;;;;;;4.57;1.92;;;;;;;23.74;40.39;101022.94;4992856;28;20031;-77
2021/03/29 00:56:32;;;;;;;3.65;1.60;;;;;;;23.58;40.41;101008.53;4992787;28;20027;-78
2021/03/29 00:58:59;;;;;;;3.95;1.80;;;;;;;23.62;40.55;101020.50;4993082;28;20503;-78
2021/03/29 01:01:28;;;;;;;3.63;1.50;;;;;;;23.94;39.72;101019.75;4992846;28;20022;-77
2021/03/29 01:03:58;;;;;;;3.70;1.25;;;;;;;23.82;39.94;101025.75;4992802;28;20058;-77
2021/03/29 01:06:27;;;;;;;8.13;2.10;;;;;;;24.13;39.33;101018.59;4992783;28;20496;-77
2021/03/29 01:08:55;;;;;;;4.33;1.53;;;;;;;24.40;38.60;101000.22;4992796;28;20034;-78
2021/03/29 01:11:27;;;;;;;3.55;1.40;;;;;;;24.07;39.50;101023.75;4992662;28;20027;-77
2021/03/29 01:13:57;;;;;;;4.28;1.40;;;;;;;24.49;38.63;101030.56;4992751;28;20393;-77
2021/03/29 01:16:25;;;;;;;4.43;1.60;;;;;;;24.13;39.55;101038.13;4992567;28;20029;-77
2021/03/29 01:18:55;;;;;;;3.00;1.30;;;;;;;23.83;40.04;101032.91;4992655;28;20034;-77
2021/03/29 01:21:42;;;;;;;6.65;1.40;;;;;;;24.00;39.83;101030.13;4992695;28;20022;-77
2021/03/29 01:24:19;;;;;;;3.35;1.52;;;;;;;23.82;39.93;101039.69;4992723;28;20109;-77
2021/03/29 01:26:47;;;;;;;2.80;1.13;;;;;;;24.20;39.03;101041.72;4992844;28;20049;-77
2021/03/29 01:29:18;;;;;;;5.38;1.67;;;;;;;24.06;39.17;101027.75;4992579;28;20034;-77
2021/03/29 01:31:45;;;;;;;3.50;1.30;;;;;;;23.99;39.86;101036.91;4992613;28;20485;-78
2021/03/29 01:34:14;;;;;;;3.42;1.50;;;;;;;24.11;39.60;101032.13;4992389;28;20037;-80
2021/03/29 01:36:42;;;;;;;6.80;1.98;;;;;;;23.93;39.57;101037.69;4992510;28;20434;-77
2021/03/29 01:39:10;;;;;;;8.63;2.78;;;;;;;24.07;39.25;101044.09;4991202;28;20085;-78
2021/03/29 01:41:36;;;;;;;6.75;1.50;;;;;;;24.10;39.49;101034.13;4992078;28;20042;-79
2021/03/29 01:44:04;;;;;;;6.63;1.55;;;;;;;24.07;39.56;101048.88;4995985;28;20129;-77
2021/03/29 01:46:30;;;;;;;4.57;1.50;;;;;;;24.00;39.41;101040.50;4995956;28;20392;-77
2021/03/29 01:48:56;;;;;;;4.72;1.77;;;;;;;24.10;39.50;101036.91;4996102;28;20113;-77
2021/03/29 01:51:22;;;;;;;4.30;1.50;;;;;;;24.24;39.02;101039.69;4995774;28;20105;-77
2021/03/29 01:53:49;;;;;;;5.05;1.48;;;;;;;24.26;38.89;101048.50;4995788;28;20027;-77
2021/03/29 01:56:15;;;;;;;4.10;1.70;;;;;;;24.24;39.15;101031.31;4995606;28;20027;-77
2021/03/29 01:58:42;;;;;;;3.60;1.20;;;;;;;24.18;39.27;101038.53;4995708;28;20026;-77
2021/03/29 02:01:11;;;;;;;5.28;1.80;;;;;;;24.03;39.58;101036.91;4995604;28;20026;-77
2021/03/29 02:03:37;;;;;;;4.17;1.53;;;;;;;24.25;38.94;101038.50;4995613;28;20110;-77
2021/03/29 02:06:04;;;;;;;4.38;1.73;;;;;;;24.24;38.92;101031.31;4995475;28;20030;-77
2021/03/29 02:08:32;;;;;;;6.97;2.03;;;;;;;24.20;39.10;101038.91;4995502;28;20117;-77
2021/03/29 02:10:58;;;;;;;7.18;2.20;;;;;;;24.01;39.67;101042.88;4994166;28;20475;-77
2021/03/29 02:13:29;;;;;;;3.63;1.50;;;;;;;24.10;39.47;101039.69;4995384;28;20049;-77
2021/03/29 02:15:58;;;;;;;4.90;1.80;;;;;;;24.00;39.48;101032.91;4995371;28;20081;-77
2021/03/29 02:18:30;;;;;;;5.35;2.15;;;;;;;24.13;39.50;101038.91;4995281;28;20401;-77
2021/03/29 02:21:00;;;;;;;9.80;1.98;;;;;;;24.03;39.55;101046.09;4994982;28;20030;-78
2021/03/29 02:23:26;;;;;;;7.72;2.20;;;;;;;24.03;39.74;101034.09;4995273;28;20049;-78
2021/03/29 02:25:52;;;;;;;6.15;2.05;;;;;;;24.02;39.79;101041.69;4995213;28;20038;-77
2021/03/29 02:28:19;;;;;;;7.63;2.30;;;;;;;23.97;39.81;101041.31;4995180;28;20030;-78
2021/03/29 02:30:46;;;;;;;9.13;1.83;;;;;;;24.04;39.46;101041.31;4995153;28;20033;-77
2021/03/29 02:33:14;;;;;;;6.25;2.00;;;;;;;24.13;39.55;101055.66;4995122;28;20030;-77
2021/03/29 02:35:41;;;;;;;7.40;2.05;;;;;;;24.15;39.38;101063.63;4994996;28;20085;-77
2021/03/29 02:38:11;;;;;;;8.25;2.85;;;;;;;24.06;39.38;101064.03;4994930;28;20042;-79
2021/03/29 02:40:37;;;;;;;;;;;;;;;23.94;40.13;101065.19;4995482;28;20058;-77
2021/03/29 02:43:04;;;;;;;9.07;2.63;;;;;;;24.11;39.37;101079.56;4994626;28;19918;-77
2021/03/29 02:45:33;;;;;;;7.90;2.45;;;;;;;24.15;39.45;101077.59;4994913;28;20048;-77
2021/03/29 02:48:05;;;;;;;6.50;2.20;;;;;;;24.14;39.58;101084.38;4995026;28;20496;-77
2021/03/29 02:50:32;;;;;;;9.13;2.50;;;;;;;24.24;39.45;101089.16;4994788;28;20037;-77
2021/03/29 02:53:01;;;;;;;9.77;2.58;;;;;;;24.19;39.80;101093.16;4994676;28;20018;-77
2021/03/29 02:55:28;;;;;;;8.02;2.15;;;;;;;24.12;39.88;101082.00;4994634;28;20511;-77
2021/03/29 02:57:58;;;;;;;9.95;2.63;;;;;;;24.01;40.32;101081.16;4994497;28;20034;-78
2021/03/29 03:00:25;;;;;;;8.10;3.45;;;;;;;24.14;39.94;101092.75;4994657;28;20058;-78
2021/03/29 03:02:58;;;;;;;10.68;2.65;;;;;;;24.03;40.25;101084.34;4994512;28;20141;-77
2021/03/29 03:05:29;;;;;;;6.78;2.22;;;;;;;23.96;40.60;101079.59;4994402;28;20030;-77
2021/03/29 03:07:56;;;;;;;6.50;2.33;;;;;;;23.98;40.21;101070.81;4994475;28;20491;-78
2021/03/29 03:10:22;;;;;;;5.50;1.95;;;;;;;23.90;40.48;101077.56;4994326;28;20034;-77
2021/03/29 03:12:49;;;;;;;7.88;2.45;;;;;;;23.97;40.49;101074.78;4994521;28;20026;-77
2021/03/29 03:15:19;;;;;;;9.75;2.22;;;;;;;23.96;40.57;101084.38;4994266;28;20058;-77
2021/03/29 03:17:46;;;;;;;7.00;2.30;;;;;;;24.06;40.21;101075.19;4994359;28;20083;-77
2021/03/29 03:20:14;;;;;;;6.68;2.05;;;;;;;24.00;40.42;101062.81;4994181;28;20481;-78
2021/03/29 03:22:48;;;;;;;8.40;2.42;;;;;;;23.86;40.69;101073.97;4994062;28;20033;-77
2021/03/29 03:25:20;;;;;;;8.68;2.60;;;;;;;23.80;40.62;101071.59;4994040;28;20507;-77
2021/03/29 03:27:46;;;;;;;7.45;2.33;;;;;;;23.80;40.59;101077.16;4993979;28;20053;-78
2021/03/29 03:30:19;;;;;;;7.93;2.75;;;;;;;23.73;40.89;101077.16;4993948;28;20030;-78
2021/03/29 03:32:45;;;;;;;6.57;2.10;;;;;;;23.84;40.66;101076.34;4993889;28;20034;-77
2021/03/29 03:35:14;;;;;;;7.63;2.25;;;;;;;23.90;40.26;101072.00;4993855;28;20022;-78
2021/03/29 03:37:46;;;;;;;5.82;1.90;;;;;;;23.76;40.45;101069.97;4993708;28;20469;-77
2021/03/29 03:40:13;;;;;;;5.43;1.98;;;;;;;23.65;40.87;101074.69;4993628;28;20057;-77
2021/03/29 03:42:40;;;;;;;5.25;1.92;;;;;;;23.72;41.07;101086.69;4993789;28;20121;-77
2021/03/29 03:45:07;;;;;;;7.80;2.28;;;;;;;23.63;40.84;101074.31;4993970;28;20062;-77
2021/03/29 03:47:34;;;;;;;6.90;2.00;;;;;;;23.52;41.20;101085.41;4993884;28;20112;-78
2021/03/29 03:50:01;;;;;;;6.32;2.10;;;;;;;23.82;40.61;101089.91;4993697;28;20130;-77
2021/03/29 03:52:27;;;;;;;4.47;2.13;;;;;;;23.71;40.66;101093.47;4993626;28;20058;-77
2021/03/29 03:54:53;;;;;;;5.20;2.00;;;;;;;23.86;40.32;101094.28;4993527;28;20390;-77
2021/03/29 03:57:19;;;;;;;5.97;1.75;;;;;;;23.76;40.48;101093.09;4993433;28;20096;-78
2021/03/29 03:59:46;;;;;;;7.68;2.35;;;;;;;23.76;40.58;101084.72;4993714;28;20398;-77
2021/03/29 04:02:12;;;;;;;11.45;2.55;;;;;;;24.00;39.99;101093.53;4993459;28;20038;-78
2021/03/29 04:04:38;;;;;;;6.03;2.63;;;;;;;24.15;39.66;101097.13;4992808;28;20086;-77
2021/03/29 04:07:04;;;;;;;9.45;3.15;;;;;;;24.05;40.18;101090.34;4993372;28;20042;-77
2021/03/29 04:09:56;;;;;;;8.40;2.60;;;;;;;24.06;39.85;101098.31;4992298;28;20026;-78
2021/03/29 04:12:16;;;;;;;8.70;2.88;;;;;;;24.04;39.84;101097.13;4992662;28;20400;-77
2021/03/29 04:14:41;;;;;;;7.22;2.58;;;;;;;24.07;39.98;101096.34;4993456;28;20037;-78
2021/03/29 04:17:07;;;;;;;9.15;2.88;;;;;;;24.06;40.00;101094.75;4992816;28;20493;-77
2021/03/29 04:19:34;;;;;;;7.13;2.47;;;;;;;24.08;39.93;101098.72;4993245;28;20473;-77
2021/03/29 04:22:00;;;;;;;8.13;2.50;;;;;;;24.13;39.91;101103.13;4993204;28;20026;-77
2021/03/29 04:24:26;;;;;;;7.22;3.15;;;;;;;23.90;40.21;101102.69;4991899;28;20035;-77
2021/03/29 04:26:51;;;;;;;11.57;2.67;;;;;;;23.87;40.40;101106.25;4993097;28;20080;-77
2021/03/29 04:29:17;;;;;;;9.15;2.88;;;;;;;23.83;40.66;101102.66;4993046;28;20033;-77
2021/03/29 04:31:42;;;;;;;9.35;2.47;;;;;;;23.91;40.30;101116.25;4993089;28;20026;-77
2021/03/29 04:34:08;;;;;;;8.27;2.75;;;;;;;23.74;40.58;101112.22;4991928;28;20022;-77
2021/03/29 04:36:34;;;;;;;7.57;2.53;;;;;;;23.91;40.24;101121.03;4992959;28;20202;-77
2021/03/29 04:39:00;;;;;;;9.27;2.53;;;;;;;23.91;40.47;101105.06;4993297;28;20428;-77
2021/03/29 04:41:26;;;;;;;9.55;2.53;;;;;;;23.93;40.11;101129.78;4992722;28;20046;-77
2021/03/29 04:43:51;;;;;;;10.23;3.25;;;;;;;24.07;40.02;101124.25;4992896;28;20133;-77
2021/03/29 04:46:17;;;;;;;6.68;2.08;;;;;;;24.10;39.80;101134.59;4992984;28;20026;-77
2021/03/29 04:48:42;;;;;;;10.68;3.20;;;;;;;23.82;40.70;101137.34;4993055;28;20033;-77
2021/03/29 04:51:08;;;;;;;7.57;3.03;;;;;;;23.93;40.44;101138.16;4992979;28;20470;-78
2021/03/29 04:53:34;;;;;;;8.45;2.88;;;;;;;23.89;40.34;101140.16;4992934;28;20077;-77
2021/03/29 04:55:59;;;;;;;8.95;3.05;;;;;;;23.83;40.76;101152.91;4991534;28;20026;-78
2021/03/29 04:58:25;;;;;;;10.25;2.50;;;;;;;23.86;40.70;101141.72;4992237;28;20564;-77
2021/03/29 05:00:50;;;;;;;9.07;3.45;;;;;;;23.84;40.27;101144.13;4992464;28;20056;-77
2021/03/29 05:03:16;;;;;;;6.53;2.40;;;;;;;23.85;40.43;101136.56;4992831;28;20026;-77
2021/03/29 05:05:41;;;;;;;6.88;2.35;;;;;;;23.94;40.24;101137.75;4992996;28;20026;-77
2021/03/29 05:08:07;;;;;;;6.82;2.40;;;;;;;23.83;40.71;101141.72;4992731;28;20432;-78
2021/03/29 05:10:34;;;;;;;9.32;2.65;;;;;;;23.65;41.12;101152.81;4992687;28;20022;-78
2021/03/29 05:13:00;;;;;;;6.20;1.92;;;;;;;23.69;40.75;101146.06;4992807;28;20026;-77
2021/03/29 05:15:26;;;;;;;16.60;2.72;;;;;;;23.72;40.91;101158.41;4991416;28;20436;-78
2021/03/29 05:17:51;;;;;;;9.07;2.58;;;;;;;23.74;40.87;101159.63;4996075;28;20038;-78
2021/03/29 05:20:17;;;;;;;7.97;2.10;;;;;;;23.94;40.33;101151.72;4996403;28;20026;-78
2021/03/29 05:22:43;;;;;;;8.55;2.40;;;;;;;23.92;40.13;101161.69;4996358;28;20388;-77
2021/03/29 05:25:08;;;;;;;6.97;2.20;;;;;;;23.79;40.74;101175.97;4995036;28;20081;-77
2021/03/29 05:27:34;;;;;;;6.70;1.92;;;;;;;23.64;41.06;101174.31;4996238;28;20030;-80
2021/03/29 05:30:00;;;;;;;6.72;2.30;;;;;;;23.79;40.75;101178.78;4996142;28;20022;-78
2021/03/29 05:32:27;;;;;;;9.32;2.70;;;;;;;23.91;40.51;101182.41;4996049;28;20026;-78
2021/03/29 05:34:55;;;;;;;6.90;1.80;;;;;;;23.68;40.73;101174.34;4996182;28;20018;-78
2021/03/29 05:37:22;;;;;;;8.23;2.67;;;;;;;23.70;40.76;101175.56;4995959;28;20465;-78
2021/03/29 05:39:49;;;;;;;8.30;1.98;;;;;;;23.71;40.91;101179.16;4994826;28;20485;-78
2021/03/29 05:42:16;;;;;;;12.38;3.20;;;;;;;23.52;41.26;101177.44;4995889;28;20047;-77
2021/03/29 05:44:42;;;;;;;4.93;1.63;;;;;;;23.75;40.64;101186.34;4996021;28;20058;-77
2021/03/29 05:47:08;;;;;;;4.88;1.75;;;;;;;23.87;40.56;101192.75;4995927;28;20018;-77
2021/03/29 05:49:34;;;;;;;7.45;2.55;;;;;;;23.71;40.82;101195.88;4995860;28;20492;-78
2021/03/29 05:52:01;;;;;;;5.03;1.88;;;;;;;23.71;40.98;101205.03;4995873;28;20389;-78
2021/03/29 05:54:27;;;;;;;8.30;1.92;;;;;;;23.72;40.68;101209.44;4995783;28;20030;-77
2021/03/29 05:56:53;;;;;;;5.72;1.60;;;;;;;23.54;41.25;101209.31;4995693;28;20050;-78
2021/03/29 05:59:26;;;;;;;6.40;2.17;;;;;;;23.75;40.68;101216.25;4995637;28;20063;-78
2021/03/29 06:01:54;;;;;;;5.50;1.73;;;;;;;23.81;40.52;101228.63;4995958;28;20389;-78
2021/03/29 06:04:43;;;;;;;9.05;2.25;;;;;;;23.62;41.09;101212.97;4995598;28;20118;-78
2021/03/29 06:07:25;;;;;;;9.90;2.55;;;;;;;23.64;41.01;101223.75;4995505;28;20034;-78
2021/03/29 06:09:56;;;;;;;9.10;2.75;;;;;;;23.68;40.96;101217.00;4995577;28;20026;-77
2021/03/29 06:12:23;;;;;;;8.05;1.73;;;;;;;23.49;41.30;101218.06;4995502;28;20056;-77
2021/03/29 06:15:03;;;;;;;9.80;2.10;;;;;;;23.51;41.32;101226.06;4995310;28;20110;-77
2021/03/29 06:17:29;;;;;;;12.38;2.28;;;;;;;23.69;40.81;101229.75;4995380;28;20072;-77
2021/03/29 06:20:02;;;;;;;6.78;2.28;;;;;;;23.67;41.00;101234.94;4995369;28;20026;-78
2021/03/29 06:22:31;;;;;;;9.63;2.78;;;;;;;23.58;41.30;101237.25;4994223;28;20022;-78
2021/03/29 06:25:08;;;;;;;12.57;2.30;;;;;;;23.76;40.79;101242.94;4995143;28;20037;-77
2021/03/29 06:27:46;;;;;;;8.57;2.03;;;;;;;23.69;41.04;101237.31;4994558;28;20029;-77
2021/03/29 06:30:32;;;;;;;8.95;3.42;;;;;;;23.80;40.57;101252.94;4995177;28;20023;-80
2021/03/29 06:33:09;;;;;;;9.55;2.65;;;;;;;23.73;41.03;101252.91;4995117;28;20026;-80
2021/03/29 06:35:39;;;;;;;8.13;2.20;;;;;;;23.44;41.75;101251.91;4995028;28;20026;-80
2021/03/29 06:38:05;;;;;;;6.50;1.83;;;;;;;23.65;41.09;101264.38;4988851;28;20042;-81
2021/03/29 06:40:31;;;;;;;8.07;2.25;;;;;;;23.48;41.47;101274.22;4989129;28;20030;-77
2021/03/29 06:42:57;;;;;;;11.00;2.30;;;;;;;23.53;41.40;101279.44;4994809;28;20030;-78
2021/03/29 06:45:23;;;;;;;6.13;2.10;;;;;;;23.58;41.07;101279.09;4993690;28;20045;-79
2021/03/29 06:47:48;;;;;;;8.90;2.42;;;;;;;23.56;41.30;101287.03;4994812;28;20088;-77
2021/03/29 06:50:27;;;;;;;5.80;3.05;;;;;;;23.72;40.99;101281.16;4994986;28;20030;-79
2021/03/29 06:52:53;;;;;;;10.05;2.63;;;;;;;23.70;41.07;101281.56;4994916;28;20534;-78
2021/03/29 06:55:23;;;;;;;9.27;2.33;;;;;;;23.79;41.01;101289.59;4994619;28;20113;-78
2021/03/29 06:58:03;;;;;;;7.72;2.45;;;;;;;23.83;40.74;101286.81;4994514;28;20049;-78
2021/03/29 07:00:36;;;;;;;8.68;2.25;;;;;;;23.74;41.08;101284.41;4993688;28;20088;-77
2021/03/29 07:03:04;;;;;;;10.52;2.47;;;;;;;23.80;41.20;101289.22;4992668;28;20532;-77
2021/03/29 07:05:31;;;;;;;10.35;2.63;;;;;;;23.86;41.18;101295.22;4992520;28;20030;-78
2021/03/29 07:07:59;;;;;;;8.00;2.38;;;;;;;23.89;40.65;101296.44;4992552;28;20027;-77
2021/03/29 07:10:25;;;;;;;6.50;2.65;;;;;;;23.80;41.01;101299.56;4992512;28;20084;-77
2021/03/29 07:12:52;;;;;;;9.40;2.42;;;;;;;23.49;41.81;101301.72;4994372;28;20022;-77
2021/03/29 07:15:18;;;;;;;7.47;2.28;;;;;;;23.85;40.87;101315.13;4989093;28;20027;-79
2021/03/29 07:17:45;;;;;;;8.55;2.47;;;;;;;23.76;41.22;101304.31;4993765;28;20053;-77
2021/03/29 07:20:23;;;;;;;4.40;1.80;;;;;;;23.71;41.41;101325.00;4994148;28;20118;-78
2021/03/29 07:22:50;;;;;;;5.57;1.50;;;;;;;23.65;41.39;101315.41;4992998;28;20027;-77
2021/03/29 07:25:17;;;;;;;6.68;1.90;;;;;;;23.72;41.31;101314.66;4994083;28;20038;-77
2021/03/29 07:27:52;;;;;;;11.75;2.08;;;;;;;23.54;41.69;101326.47;4994050;28;20026;-77
2021/03/29 07:30:39;;;;;;;4.13;1.77;;;;;;;23.92;41.02;101329.13;4994044;28;20037;-77
2021/03/29 07:33:06;;;;;;;6.45;2.42;;;;;;;23.74;41.44;101340.19;4993874;28;20030;-78
2021/03/29 07:35:50;;;;;;;7.18;1.70;;;;;;;23.62;41.65;101346.06;4993954;28;20431;-78
2021/03/29 07:38:18;;;;;;;5.57;1.58;;;;;;;23.90;41.02;101351.06;4993591;28;20549;-81
2021/03/29 07:40:57;;;;;;;3.63;1.42;;;;;;;24.05;40.47;101361.13;4992527;28;20062;-80
2021/03/29 07:43:24;;;;;;;6.45;1.80;;;;;;;24.01;40.69;101360.28;4993593;28;20022;-77
2021/03/29 07:46:05;;;;;;;4.25;1.30;;;;;;;23.95;40.81;101367.41;4994025;28;20113;-76
2021/03/29 07:48:39;;;;;;;5.53;1.60;;;;;;;24.22;40.31;101374.34;4993515;28;20062;-77
2021/03/29 07:51:17;;;;;;;3.45;1.10;;;;;;;24.12;40.35;101383.50;4993627;28;20026;-77
2021/03/29 07:53:52;;;;;;;4.95;1.45;;;;;;;24.06;40.75;101383.03;4993566;28;20057;-78
2021/03/29 07:56:45;;;;;;;12.65;3.15;;;;;;;24.15;40.61;101390.28;4993708;28;20022;-80
2021/03/29 07:59:12;;;;;;;5.95;2.13;;;;;;;24.16;40.49;101389.88;4989351;28;20034;-80
2021/03/29 08:02:00;;;;;;;3.20;1.35;;;;;;;24.08;40.55;101407.78;4993489;28;20018;-81
2021/03/29 08:05:05;;;;;;;5.35;1.88;;;;;;;23.90;41.01;101404.88;4993452;28;20026;-82
2021/03/29 08:07:40;;;;;;;3.70;1.17;;;;;;;24.06;40.45;101413.75;4993339;28;20053;-78
2021/03/29 08:10:09;;;;;;;5.40;1.77;;;;;;;24.09;40.54;101429.72;4993367;28;20049;-80
2021/03/29 08:12:35;;;;;;;4.88;1.27;;;;;;;24.17;40.28;101424.97;4993002;28;20023;-77
2021/03/29 08:15:01;;;;;;;3.10;1.23;;;;;;;24.18;40.44;101429.41;4993369;28;20022;-77
2021/03/29 08:17:35;;;;;;;5.50;1.40;;;;;;;24.08;40.45;101444.06;4993190;28;20037;-77
2021/03/29 08:20:17;;;;;;;4.22;1.52;;;;;;;24.13;40.46;101440.91;4991267;28;20545;-80
2021/03/29 08:22:43;;;;;;;4.03;1.20;;;;;;;24.12;40.60;101438.53;4989191;28;20080;-81
2021/03/29 08:25:27;;;;;;;8.15;1.60;;;;;;;23.89;40.76;101453.50;4992447;28;20031;-77
2021/03/29 08:27:58;;;;;;;3.65;1.23;;;;;;;24.04;40.51;101460.00;4992911;28;20022;-77
2021/03/29 08:30:25;;;;;;;3.63;1.25;;;;;;;23.94;40.75;101453.13;4993158;28;20530;-77
2021/03/29 08:32:50;;;;;;;4.13;1.48;;;;;;;24.23;40.25;101472.88;4993026;28;20022;-77
2021/03/29 08:35:19;;;;;;;2.67;1.00;;;;;;;24.20;40.37;101463.31;4993093;28;20030;-81
2021/03/29 08:37:54;;;;;;;10.90;2.80;;;;;;;24.27;40.02;101462.56;4993053;28;20027;-78
2021/03/29 08:40:30;;;;;;;6.72;1.35;;;;;;;24.06;40.65;101464.00;4992756;28;20034;-77
2021/03/29 08:43:16;;;;;;;12.50;1.75;;;;;;;24.28;40.50;101466.94;4992788;28;20108;-77
2021/03/29 08:45:44;;;;;;;11.68;1.83;;;;;;;24.25;40.25;101462.13;4992877;28;20065;-77
2021/03/29 08:48:09;;;;;;;3.58;1.05;;;;;;;24.20;40.50;101471.69;4993255;28;20389;-79
2021/03/29 08:50:40;;;;;;;6.68;2.15;;;;;;;24.46;39.90;101475.44;4992936;28;20022;-77
2021/03/29 08:53:10;;;;;;;10.93;1.73;;;;;;;24.51;39.68;101480.69;4996949;28;20022;-78
2021/03/29 08:55:43;;;;;;;9.43;1.80;;;;;;;24.39;40.35;101479.00;4997149;28;20022;-82
2021/03/29 08:58:10;;;;;;;14.65;1.73;;;;;;;24.26;40.75;101475.72;4996915;28;20041;-79
2021/03/29 09:00:38;;;;;;;8.25;1.58;;;;;;;24.52;40.03;101482.28;4997323;28;20125;-79
2021/03/29 09:03:04;;;;;;;10.65;1.88;;;;;;;24.53;40.26;101483.88;4998259;28;20624;-81
2021/03/29 09:05:30;;;;;;;10.65;2.20;;;;;;;24.75;40.00;101488.38;4996479;28;20061;-77
2021/03/29 09:07:56;;;;;;;3.47;1.00;;;;;;;24.53;40.35;101489.47;4996468;28;20033;-77
2021/03/29 09:10:26;;;;;;;9.90;2.38;;;;;;;24.44;40.63;101491.81;4996868;28;20034;-77
2021/03/29 09:13:01;;;;;;;2.83;1.05;;;;;;;24.81;40.09;101491.59;4996300;28;20112;-77
2021/03/29 09:15:38;;;;;;;11.60;1.92;;;;;;;24.76;39.83;101495.56;4996329;28;20101;-78
2021/03/29 09:18:11;;;;;;;1.73;0.80;;;;;;;24.95;39.29;101494.47;4996476;28;20388;-77
2021/03/29 09:20:39;;;;;;;1.95;0.82;;;;;;;24.79;39.99;101507.97;4996489;28;20109;-79
2021/03/29 09:23:06;;;;;;;3.25;1.10;;;;;;;24.94;39.76;101514.41;4989045;28;20029;-83
2021/03/29 09:25:37;;;;;;;10.43;1.45;;;;;;;24.98;39.40;101521.63;5011598;28;20042;-80
2021/03/29 09:30:55;;;;;;;;;;;;;;;25.05;39.39;101518.91;5001762;28;20069;-78
2021/03/29 09:33:22;;;;;;;3.55;1.00;;;;;;;25.36;38.67;101525.78;4993386;28;19918;-79
2021/03/29 09:35:49;;;;;;;13.90;2.78;;;;;;;25.04;39.77;101536.06;4994753;28;20115;-81
2021/03/29 09:38:15;;;;;;;6.45;1.45;;;;;;;25.33;39.12;101534.19;4992434;28;20137;-80
2021/03/29 09:40:41;;;;;;;22.33;4.07;;;;;;;25.21;39.07;101540.13;4993171;28;20046;-79
2021/03/29 09:43:20;;;;;;;7.05;1.95;;;;;;;25.05;39.59;101551.66;4994242;28;20037;-81
2021/03/29 09:45:46;;;;;;;9.23;1.80;;;;;;;25.28;39.35;101537.34;4994405;28;20477;-79
2021/03/29 09:48:12;;;;;;;15.82;2.83;;;;;;;25.24;39.45;101554.13;4993212;28;20272;-78
2021/03/29 09:50:39;;;;;;;4.88;1.40;;;;;;;25.49;38.79;101548.59;4994718;28;20061;-80
2021/03/29 09:53:17;;;;;;;3.00;1.23;;;;;;;25.48;38.80;101554.59;4993572;28;20030;-80
2021/03/29 09:56:04;;;;;;;3.42;1.50;;;;;;;25.67;38.44;101566.22;4994022;28;20761;-79
2021/03/29 09:58:32;;;;;;;4.43;1.35;;;;;;;25.52;38.99;101569.38;4984481;28;20075;-83
2021/03/29 10:01:01;;;;;;;14.75;2.25;;;;;;;25.76;38.46;101571.47;4985368;28;20059;-85
2021/03/29 10:03:27;;;;;;;17.13;3.97;;;;;;;25.99;37.94;101577.50;4984581;28;20022;-78
2021/03/29 10:05:54;;;;;;;21.38;4.22;;;;;;;25.99;38.60;101571.91;4998567;28;20084;-85
2021/03/29 10:08:24;;;;;;;8.70;2.25;;;;;;;26.26;37.94;101582.72;5012637;28;20022;-81
2021/03/29 10:11:06;;;;;;;6.72;1.63;;;;;;;26.18;37.79;101576.31;5013274;28;20036;-80
2021/03/29 10:13:39;;;;;;;26.52;3.70;;;;;;;26.29;38.01;101584.72;5003366;28;20034;-78
2021/03/29 10:16:21;;;;;;;8.18;1.92;;;;;;;26.40;37.48;101579.16;4993891;28;20037;-80
2021/03/29 10:18:47;;;;;;;35.40;7.15;;;;;;;26.48;37.51;101575.13;4984206;28;20066;-85
2021/03/29 10:21:14;;;;;;;2.50;1.08;;;;;;;26.59;37.12;101578.72;4981884;28;20081;-85
2021/03/29 10:23:43;;;;;;;8.90;2.35;;;;;;;26.55;37.53;101575.13;4990967;28;20034;-80
2021/03/29 10:26:19;;;;;;;3.45;1.20;;;;;;;26.64;37.29;101585.91;4992430;28;20026;-80
2021/03/29 10:29:03;;;;;;;46.33;8.10;;;;;;;26.31;37.27;101587.94;4979919;28;20089;-80
2021/03/29 10:31:31;;;;;;;13.38;2.85;;;;;;;26.95;36.82;101592.66;4979613;28;20037;-79
2021/03/29 10:33:57;;;;;;;4.03;2.00;;;;;;;26.90;37.27;101582.66;4997433;28;20040;-80
2021/03/29 10:36:25;;;;;;;12.32;2.88;;;;;;;27.25;36.93;101584.56;4997472;28;20038;-79
2021/03/29 10:38:54;;;;;;;5.80;1.67;;;;;;;27.51;36.68;101586.06;4991616;28;20025;-79
2021/03/29 10:41:20;;;;;;;3.50;1.83;;;;;;;27.19;37.03;101579.78;4993019;28;20057;-79
2021/03/29 10:43:46;;;;;;;9.85;2.03;;;;;;;27.53;36.56;101586.44;4999470;28;20030;-79
2021/03/29 10:46:12;;;;;;;3.22;1.33;;;;;;;27.70;36.15;101593.19;4994097;28;20037;-79
2021/03/29 10:48:37;;;;;;;6.25;1.92;;;;;;;27.41;36.48;101598.13;4995262;28;20432;-80
2021/03/29 10:51:05;;;;;;;10.57;2.40;;;;;;;27.78;36.06;101591.13;4997464;28;20025;-79
2021/03/29 10:53:31;;;;;;;3.05;1.42;;;;;;;27.26;36.29;101586.16;4995535;28;20081;-80
2021/03/29 10:55:56;;;;;;;23.75;4.65;;;;;;;27.57;36.06;101609.66;4992694;28;20496;-79
2021/03/29 10:58:22;;;;;;;9.75;2.97;;;;;;;27.89;35.46;101606.72;4997436;28;20038;-79
2021/03/29 11:00:48;;;;;;;13.95;2.92;;;;;;;27.95;35.63;101604.25;4995796;28;20022;-79
2021/03/29 11:03:14;;;;;;;3.10;1.80;;;;;;;28.00;35.37;101617.88;4996683;28;20056;-79
2021/03/29 11:05:40;;;;;;;5.78;1.98;;;;;;;28.03;35.13;101619.03;4996523;28;20029;-79
2021/03/29 11:08:05;;;;;;;6.72;1.75;;;;;;;27.98;35.08;101613.88;4992657;28;20041;-80
2021/03/29 11:10:33;;;;;;;5.95;1.90;;;;;;;28.24;34.75;101615.28;4995953;28;20087;-80
2021/03/29 11:12:59;;;;;;;12.10;2.53;;;;;;;28.07;34.80;101608.59;4996912;28;20104;-79
2021/03/29 11:15:24;;;;;;;7.82;2.33;;;;;;;28.40;34.32;101607.13;4996031;28;20026;-80
2021/03/29 11:17:50;;;;;;;14.52;3.05;;;;;;;28.22;34.54;101607.28;4991473;28;20065;-80
2021/03/29 11:20:16;;;;;;;8.43;2.70;;;;;;;28.58;34.16;101602.16;4996244;28;20108;-80
2021/03/29 11:22:43;;;;;;;7.32;2.63;;;;;;;28.58;34.07;101623.88;4996606;28;20034;-80
2021/03/29 11:25:09;;;;;;;25.35;5.35;;;;;;;28.58;34.29;101623.88;4994485;28;20535;-79
2021/03/29 11:27:35;;;;;;;6.07;2.50;;;;;;;28.14;34.90;101602.91;4994074;28;20125;-80
2021/03/29 11:30:03;;;;;;;6.43;2.17;;;;;;;28.22;34.48;101617.72;4996620;28;20520;-79
2021/03/29 11:32:29;;;;;;;7.75;2.50;;;;;;;28.03;35.12;101619.84;4995734;28;20026;-80
2021/03/29 11:34:54;;;;;;;9.00;2.55;;;;;;;28.28;34.65;101627.31;4993964;28;20026;-80